sensor_id;sensor_type;location;lat;lon;timestamp;temperature;humidity
4904;DHT22;2467;48.142;11.616;2023-07-31T00:00:44;19.00;99.90
4904;DHT22;2467;48.142;11.616;2023-07-31T00:01:38;18.90;99.90
4904;DHT22;2467;48.142;11.616;2023-07-31T00:02:31;19.00;99.90
4904;DHT22;2467;48.142;11.616;2023-07-31T00:03:23;18.90;99.90
4904;DHT22;2467;48.142;11.616;2023-07-31T00:04:15;18.90;99.90
4904;DHT22;2467;48.142;11.616;2023-07-31T00:05:09;19.00;99.90
4904;DHT22;2467;48.142;11.616;2023-07-31T00:06:01;18.90;99.90
4904;DHT22;2467;48.142;11.616;2023-07-31T00:06:53;18.90;99.90
4904;DHT22;2467;48.142;11.616;2023-07-31T00:07:47;18.90;99.90
4904;DHT22;2467;48.142;11.616;2023-07-31T00:08:39;18.90;99.90
4904;DHT22;2467;48.142;11.616;2023-07-31T00:09:33;18.90;99.90
4904;DHT22;2467;48.142;11.616;2023-07-31T00:10:26;18.90;99.90
4904;DHT22;2467;48.142;11.616;2023-07-31T00:11:18;18.80;99.90
4904;DHT22;2467;48.142;11.616;2023-07-31T00:12:11;18.90;99.90
4904;DHT22;2467;48.142;11.616;2023-07-31T00:13:03;18.80;99.90
4904;DHT22;2467;48.142;11.616;2023-07-31T00:13:57;18.80;99.90
4904;DHT22;2467;48.142;11.616;2023-07-31T00:14:49;18.80;99.90
4904;DHT22;2467;48.142;11.616;2023-07-31T00:15:43;18.80;99.90
4904;DHT22;2467;48.142;11.616;2023-07-31T00:16:35;18.70;99.90
4904;DHT22;2467;48.142;11.616;2023-07-31T00:17:28;18.70;99.90
4904;DHT22;2467;48.142;11.616;2023-07-31T00:18:21;18.70;99.90
4904;DHT22;2467;48.142;11.616;2023-07-31T00:19:13;18.70;99.90
4904;DHT22;2467;48.142;11.616;2023-07-31T00:20:07;18.70;99.90
4904;DHT22;2467;48.142;11.616;2023-07-31T00:21:00;18.70;99.90
4904;DHT22;2467;48.142;11.616;2023-07-31T00:21:52;18.70;99.90
4904;DHT22;2467;48.142;11.616;2023-07-31T00:22:45;18.70;99.90
4904;DHT22;2467;48.142;11.616;2023-07-31T00:23:37;18.70;99.90
4904;DHT22;2467;48.142;11.616;2023-07-31T00:24:30;18.70;99.90
4904;DHT22;2467;48.142;11.616;2023-07-31T00:25:24;18.60;99.90
4904;DHT22;2467;48.142;11.616;2023-07-31T00:26:17;18.60;99.90
4904;DHT22;2467;48.142;11.616;2023-07-31T00:27:09;18.60;99.90
4904;DHT22;2467;48.142;11.616;2023-07-31T00:28:03;18.60;99.90
4904;DHT22;2467;48.142;11.616;2023-07-31T00:28:55;18.60;99.90
4904;DHT22;2467;48.142;11.616;2023-07-31T00:29:47;18.60;99.90
4904;DHT22;2467;48.142;11.616;2023-07-31T00:30:40;18.60;99.90
4904;DHT22;2467;48.142;11.616;2023-07-31T00:31:33;18.60;99.90
4904;DHT22;2467;48.142;11.616;2023-07-31T00:32:25;18.60;99.90
4904;DHT22;2467;48.142;11.616;2023-07-31T00:33:18;18.60;99.90
4904;DHT22;2467;48.142;11.616;2023-07-31T00:34:10;18.60;99.90
4904;DHT22;2467;48.142;11.616;2023-07-31T00:35:04;18.60;99.90
4904;DHT22;2467;48.142;11.616;2023-07-31T00:35:57;18.60;99.90
4904;DHT22;2467;48.142;11.616;2023-07-31T00:36:50;18.60;99.90
4904;DHT22;2467;48.142;11.616;2023-07-31T00:37:42;18.60;99.90
4904;DHT22;2467;48.142;11.616;2023-07-31T00:38:35;18.60;99.90
4904;DHT22;2467;48.142;11.616;2023-07-31T00:39:27;18.60;99.90
4904;DHT22;2467;48.142;11.616;2023-07-31T00:40:19;18.60;99.90
4904;DHT22;2467;48.142;11.616;2023-07-31T00:41:14;18.60;99.90
4904;DHT22;2467;48.142;11.616;2023-07-31T00:42:06;18.60;99.90
4904;DHT22;2467;48.142;11.616;2023-07-31T00:42:58;18.60;99.90
4904;DHT22;2467;48.142;11.616;2023-07-31T00:43:54;18.60;99.90
4904;DHT22;2467;48.142;11.616;2023-07-31T00:44:46;18.60;99.90
4904;DHT22;2467;48.142;11.616;2023-07-31T00:45:40;18.60;99.90
4904;DHT22;2467;48.142;11.616;2023-07-31T00:46:33;18.60;99.90
4904;DHT22;2467;48.142;11.616;2023-07-31T00:47:26;18.60;99.90
4904;DHT22;2467;48.142;11.616;2023-07-31T00:48:18;18.60;99.90
4904;DHT22;2467;48.142;11.616;2023-07-31T00:49:11;18.60;99.90
4904;DHT22;2467;48.142;11.616;2023-07-31T00:50:06;18.60;99.90
4904;DHT22;2467;48.142;11.616;2023-07-31T00:50:59;18.60;99.90
4904;DHT22;2467;48.142;11.616;2023-07-31T00:51:53;18.60;99.90
4904;DHT22;2467;48.142;11.616;2023-07-31T00:52:49;18.60;99.90
4904;DHT22;2467;48.142;11.616;2023-07-31T00:53:41;18.60;99.90
4904;DHT22;2467;48.142;11.616;2023-07-31T00:54:35;18.60;99.90
4904;DHT22;2467;48.142;11.616;2023-07-31T00:55:29;18.60;99.90
4904;DHT22;2467;48.142;11.616;2023-07-31T00:56:23;18.60;99.90
4904;DHT22;2467;48.142;11.616;2023-07-31T00:57:17;18.60;99.90
4904;DHT22;2467;48.142;11.616;2023-07-31T00:58:10;18.50;99.90
4904;DHT22;2467;48.142;11.616;2023-07-31T00:59:03;18.50;99.90
4904;DHT22;2467;48.142;11.616;2023-07-31T00:59:55;18.50;99.90
4904;DHT22;2467;48.142;11.616;2023-07-31T01:00:47;18.50;99.90
4904;DHT22;2467;48.142;11.616;2023-07-31T01:01:42;18.50;99.90
4904;DHT22;2467;48.142;11.616;2023-07-31T01:02:35;18.50;99.90
4904;DHT22;2467;48.142;11.616;2023-07-31T01:03:27;18.50;99.90
4904;DHT22;2467;48.142;11.616;2023-07-31T01:04:20;18.50;99.90
4904;DHT22;2467;48.142;11.616;2023-07-31T01:05:13;18.50;99.90
4904;DHT22;2467;48.142;11.616;2023-07-31T01:06:14;18.40;99.90
4904;DHT22;2467;48.142;11.616;2023-07-31T01:07:12;18.40;99.90
4904;DHT22;2467;48.142;11.616;2023-07-31T01:08:12;18.40;99.90
4904;DHT22;2467;48.142;11.616;2023-07-31T01:09:12;18.40;99.90
4904;DHT22;2467;48.142;11.616;2023-07-31T01:10:13;18.40;99.90
4904;DHT22;2467;48.142;11.616;2023-07-31T01:11:11;18.40;99.90
4904;DHT22;2467;48.142;11.616;2023-07-31T01:12:14;18.40;99.90
4904;DHT22;2467;48.142;11.616;2023-07-31T01:13:06;18.40;99.90
4904;DHT22;2467;48.142;11.616;2023-07-31T01:14:01;18.50;99.90
4904;DHT22;2467;48.142;11.616;2023-07-31T01:15:03;18.40;99.90
4904;DHT22;2467;48.142;11.616;2023-07-31T01:15:56;18.50;99.90
4904;DHT22;2467;48.142;11.616;2023-07-31T01:16:48;18.50;99.90
4904;DHT22;2467;48.142;11.616;2023-07-31T01:17:42;18.50;99.90
4904;DHT22;2467;48.142;11.616;2023-07-31T01:18:35;18.50;99.90
4904;DHT22;2467;48.142;11.616;2023-07-31T01:19:28;18.50;99.90
4904;DHT22;2467;48.142;11.616;2023-07-31T01:20:22;18.50;99.90
4904;DHT22;2467;48.142;11.616;2023-07-31T01:21:25;18.50;99.90
4904;DHT22;2467;48.142;11.616;2023-07-31T01:22:33;18.50;99.90
4904;DHT22;2467;48.142;11.616;2023-07-31T01:23:37;18.50;99.90
4904;DHT22;2467;48.142;11.616;2023-07-31T01:24:47;18.50;99.90
4904;DHT22;2467;48.142;11.616;2023-07-31T01:25:54;18.50;99.90
4904;DHT22;2467;48.142;11.616;2023-07-31T01:26:55;18.50;99.90
4904;DHT22;2467;48.142;11.616;2023-07-31T01:27:55;18.50;99.90
4904;DHT22;2467;48.142;11.616;2023-07-31T01:28:55;18.50;99.90
4904;DHT22;2467;48.142;11.616;2023-07-31T01:29:55;18.50;99.90
4904;DHT22;2467;48.142;11.616;2023-07-31T01:30:49;18.50;99.90
4904;DHT22;2467;48.142;11.616;2023-07-31T01:31:42;18.50;99.90
4904;DHT22;2467;48.142;11.616;2023-07-31T01:32:39;18.50;99.90
4904;DHT22;2467;48.142;11.616;2023-07-31T01:33:32;18.50;99.90
4904;DHT22;2467;48.142;11.616;2023-07-31T01:34:25;18.50;99.90
4904;DHT22;2467;48.142;11.616;2023-07-31T01:35:19;18.50;99.90
4904;DHT22;2467;48.142;11.616;2023-07-31T01:36:11;18.50;99.90
4904;DHT22;2467;48.142;11.616;2023-07-31T01:37:04;18.50;99.90
4904;DHT22;2467;48.142;11.616;2023-07-31T01:37:57;18.50;99.90
4904;DHT22;2467;48.142;11.616;2023-07-31T01:38:50;18.60;99.90
4904;DHT22;2467;48.142;11.616;2023-07-31T01:39:42;18.60;99.90
4904;DHT22;2467;48.142;11.616;2023-07-31T01:40:35;18.50;99.90
4904;DHT22;2467;48.142;11.616;2023-07-31T01:41:29;18.60;99.90
4904;DHT22;2467;48.142;11.616;2023-07-31T01:42:21;18.60;99.90
4904;DHT22;2467;48.142;11.616;2023-07-31T01:43:14;18.60;99.90
4904;DHT22;2467;48.142;11.616;2023-07-31T01:44:06;18.60;99.90
4904;DHT22;2467;48.142;11.616;2023-07-31T01:44:59;18.60;99.90
4904;DHT22;2467;48.142;11.616;2023-07-31T01:45:52;18.60;99.90
4904;DHT22;2467;48.142;11.616;2023-07-31T01:46:44;18.60;99.90
4904;DHT22;2467;48.142;11.616;2023-07-31T01:47:36;18.60;99.90
4904;DHT22;2467;48.142;11.616;2023-07-31T01:48:30;18.60;99.90
4904;DHT22;2467;48.142;11.616;2023-07-31T01:49:27;18.60;99.90
4904;DHT22;2467;48.142;11.616;2023-07-31T01:50:20;18.60;99.90
4904;DHT22;2467;48.142;11.616;2023-07-31T01:51:13;18.60;99.90
4904;DHT22;2467;48.142;11.616;2023-07-31T01:52:06;18.60;99.90
4904;DHT22;2467;48.142;11.616;2023-07-31T01:52:59;18.60;99.90
4904;DHT22;2467;48.142;11.616;2023-07-31T01:53:51;18.60;99.90
4904;DHT22;2467;48.142;11.616;2023-07-31T01:54:44;18.60;99.90
4904;DHT22;2467;48.142;11.616;2023-07-31T01:55:36;18.60;99.90
4904;DHT22;2467;48.142;11.616;2023-07-31T01:56:30;18.60;99.90
4904;DHT22;2467;48.142;11.616;2023-07-31T01:57:23;18.60;99.90
4904;DHT22;2467;48.142;11.616;2023-07-31T01:58:15;18.60;99.90
4904;DHT22;2467;48.142;11.616;2023-07-31T01:59:08;18.60;99.90
4904;DHT22;2467;48.142;11.616;2023-07-31T02:00:01;18.60;99.90
4904;DHT22;2467;48.142;11.616;2023-07-31T02:00:53;18.60;99.90
4904;DHT22;2467;48.142;11.616;2023-07-31T02:01:45;18.60;99.90
4904;DHT22;2467;48.142;11.616;2023-07-31T02:02:39;18.50;99.90
4904;DHT22;2467;48.142;11.616;2023-07-31T02:03:31;18.60;99.90
4904;DHT22;2467;48.142;11.616;2023-07-31T02:04:24;18.60;99.90
4904;DHT22;2467;48.142;11.616;2023-07-31T02:05:16;18.50;99.90
4904;DHT22;2467;48.142;11.616;2023-07-31T02:06:09;18.50;99.90
4904;DHT22;2467;48.142;11.616;2023-07-31T02:07:02;18.60;99.90
4904;DHT22;2467;48.142;11.616;2023-07-31T02:07:54;18.50;99.90
4904;DHT22;2467;48.142;11.616;2023-07-31T02:08:47;18.60;99.90
4904;DHT22;2467;48.142;11.616;2023-07-31T02:09:40;18.60;99.90
4904;DHT22;2467;48.142;11.616;2023-07-31T02:10:32;18.60;99.90
4904;DHT22;2467;48.142;11.616;2023-07-31T02:11:25;18.50;99.90
4904;DHT22;2467;48.142;11.616;2023-07-31T02:12:19;18.50;99.90
4904;DHT22;2467;48.142;11.616;2023-07-31T02:13:12;18.60;99.90
4904;DHT22;2467;48.142;11.616;2023-07-31T02:14:04;18.60;99.90
4904;DHT22;2467;48.142;11.616;2023-07-31T02:14:57;18.60;99.90
4904;DHT22;2467;48.142;11.616;2023-07-31T02:15:50;18.60;99.90
4904;DHT22;2467;48.142;11.616;2023-07-31T02:16:43;18.60;99.90
4904;DHT22;2467;48.142;11.616;2023-07-31T02:17:35;18.60;99.90
4904;DHT22;2467;48.142;11.616;2023-07-31T02:18:28;18.60;99.90
4904;DHT22;2467;48.142;11.616;2023-07-31T02:19:21;18.60;99.90
4904;DHT22;2467;48.142;11.616;2023-07-31T02:20:13;18.60;99.90
4904;DHT22;2467;48.142;11.616;2023-07-31T02:21:06;18.60;99.90
4904;DHT22;2467;48.142;11.616;2023-07-31T02:21:59;18.60;99.90
4904;DHT22;2467;48.142;11.616;2023-07-31T02:22:51;18.60;99.90
4904;DHT22;2467;48.142;11.616;2023-07-31T02:23:44;18.60;99.90
4904;DHT22;2467;48.142;11.616;2023-07-31T02:24:36;18.60;99.90
4904;DHT22;2467;48.142;11.616;2023-07-31T02:25:28;18.60;99.90
4904;DHT22;2467;48.142;11.616;2023-07-31T02:26:22;18.60;99.90
4904;DHT22;2467;48.142;11.616;2023-07-31T02:27:14;18.60;99.90
4904;DHT22;2467;48.142;11.616;2023-07-31T02:28:08;18.60;99.90
4904;DHT22;2467;48.142;11.616;2023-07-31T02:29:01;18.60;99.90
4904;DHT22;2467;48.142;11.616;2023-07-31T02:29:53;18.60;99.90
4904;DHT22;2467;48.142;11.616;2023-07-31T02:30:46;18.60;99.90
4904;DHT22;2467;48.142;11.616;2023-07-31T02:31:39;18.60;99.90
4904;DHT22;2467;48.142;11.616;2023-07-31T02:32:31;18.60;99.90
4904;DHT22;2467;48.142;11.616;2023-07-31T02:33:24;18.60;99.90
4904;DHT22;2467;48.142;11.616;2023-07-31T02:34:17;18.60;99.90
4904;DHT22;2467;48.142;11.616;2023-07-31T02:35:09;18.60;99.90
4904;DHT22;2467;48.142;11.616;2023-07-31T02:36:03;18.60;99.90
4904;DHT22;2467;48.142;11.616;2023-07-31T02:36:56;18.60;99.90
4904;DHT22;2467;48.142;11.616;2023-07-31T02:37:49;18.60;99.90
4904;DHT22;2467;48.142;11.616;2023-07-31T02:38:41;18.60;99.90
4904;DHT22;2467;48.142;11.616;2023-07-31T02:39:34;18.60;99.90
4904;DHT22;2467;48.142;11.616;2023-07-31T02:40:26;18.60;99.90
4904;DHT22;2467;48.142;11.616;2023-07-31T02:41:19;18.60;99.90
4904;DHT22;2467;48.142;11.616;2023-07-31T02:42:13;18.60;99.90
4904;DHT22;2467;48.142;11.616;2023-07-31T02:43:05;18.60;99.90
4904;DHT22;2467;48.142;11.616;2023-07-31T02:43:59;18.50;99.90
4904;DHT22;2467;48.142;11.616;2023-07-31T02:44:52;18.60;99.90
4904;DHT22;2467;48.142;11.616;2023-07-31T02:45:51;18.60;99.90
4904;DHT22;2467;48.142;11.616;2023-07-31T02:46:44;18.60;99.90
4904;DHT22;2467;48.142;11.616;2023-07-31T02:47:37;18.60;99.90
4904;DHT22;2467;48.142;11.616;2023-07-31T02:48:29;18.60;99.90
4904;DHT22;2467;48.142;11.616;2023-07-31T02:49:22;18.60;99.90
4904;DHT22;2467;48.142;11.616;2023-07-31T02:50:14;18.60;99.90
4904;DHT22;2467;48.142;11.616;2023-07-31T02:51:07;18.60;99.90
4904;DHT22;2467;48.142;11.616;2023-07-31T02:52:00;18.60;99.90
4904;DHT22;2467;48.142;11.616;2023-07-31T02:52:52;18.60;99.90
4904;DHT22;2467;48.142;11.616;2023-07-31T02:53:44;18.60;99.90
4904;DHT22;2467;48.142;11.616;2023-07-31T02:54:38;18.70;99.90
4904;DHT22;2467;48.142;11.616;2023-07-31T02:55:30;18.60;99.90
4904;DHT22;2467;48.142;11.616;2023-07-31T02:56:23;18.60;99.90
4904;DHT22;2467;48.142;11.616;2023-07-31T02:57:15;18.60;99.90
4904;DHT22;2467;48.142;11.616;2023-07-31T02:58:08;18.60;99.90
4904;DHT22;2467;48.142;11.616;2023-07-31T02:59:02;18.50;99.90
4904;DHT22;2467;48.142;11.616;2023-07-31T02:59:54;18.60;99.90
4904;DHT22;2467;48.142;11.616;2023-07-31T03:00:47;18.60;99.90
4904;DHT22;2467;48.142;11.616;2023-07-31T03:01:40;18.50;99.90
4904;DHT22;2467;48.142;11.616;2023-07-31T03:02:32;18.50;99.90
4904;DHT22;2467;48.142;11.616;2023-07-31T03:03:25;18.50;99.90
4904;DHT22;2467;48.142;11.616;2023-07-31T03:04:18;18.50;99.90
4904;DHT22;2467;48.142;11.616;2023-07-31T03:05:10;18.50;99.90
4904;DHT22;2467;48.142;11.616;2023-07-31T03:06:02;18.40;99.90
4904;DHT22;2467;48.142;11.616;2023-07-31T03:06:56;18.40;99.90
4904;DHT22;2467;48.142;11.616;2023-07-31T03:07:48;18.40;99.90
4904;DHT22;2467;48.142;11.616;2023-07-31T03:08:40;18.40;99.90
4904;DHT22;2467;48.142;11.616;2023-07-31T03:09:33;18.40;99.90
4904;DHT22;2467;48.142;11.616;2023-07-31T03:10:25;18.40;99.90
4904;DHT22;2467;48.142;11.616;2023-07-31T03:11:18;18.40;99.90
4904;DHT22;2467;48.142;11.616;2023-07-31T03:12:11;18.40;99.90
4904;DHT22;2467;48.142;11.616;2023-07-31T03:13:03;18.40;99.90
4904;DHT22;2467;48.142;11.616;2023-07-31T03:13:55;18.40;99.90
4904;DHT22;2467;48.142;11.616;2023-07-31T03:14:50;18.30;99.90
4904;DHT22;2467;48.142;11.616;2023-07-31T03:15:42;18.30;99.90
4904;DHT22;2467;48.142;11.616;2023-07-31T03:16:35;18.30;99.90
4904;DHT22;2467;48.142;11.616;2023-07-31T03:17:28;18.30;99.90
4904;DHT22;2467;48.142;11.616;2023-07-31T03:18:20;18.20;99.90
4904;DHT22;2467;48.142;11.616;2023-07-31T03:19:14;18.20;99.90
4904;DHT22;2467;48.142;11.616;2023-07-31T03:20:07;18.20;99.90
4904;DHT22;2467;48.142;11.616;2023-07-31T03:21:00;18.20;99.90
4904;DHT22;2467;48.142;11.616;2023-07-31T03:21:52;18.20;99.90
4904;DHT22;2467;48.142;11.616;2023-07-31T03:22:44;18.20;99.90
4904;DHT22;2467;48.142;11.616;2023-07-31T03:23:38;18.20;99.90
4904;DHT22;2467;48.142;11.616;2023-07-31T03:24:30;18.20;99.90
4904;DHT22;2467;48.142;11.616;2023-07-31T03:25:23;18.20;99.90
4904;DHT22;2467;48.142;11.616;2023-07-31T03:26:16;18.20;99.90
4904;DHT22;2467;48.142;11.616;2023-07-31T03:27:08;18.10;99.90
4904;DHT22;2467;48.142;11.616;2023-07-31T03:28:01;18.10;99.90
4904;DHT22;2467;48.142;11.616;2023-07-31T03:28:53;18.10;99.90
4904;DHT22;2467;48.142;11.616;2023-07-31T03:29:47;18.10;99.90
4904;DHT22;2467;48.142;11.616;2023-07-31T03:30:40;18.10;99.90
4904;DHT22;2467;48.142;11.616;2023-07-31T03:31:32;18.10;99.90
4904;DHT22;2467;48.142;11.616;2023-07-31T03:32:26;18.10;99.90
4904;DHT22;2467;48.142;11.616;2023-07-31T03:33:18;18.10;99.90
4904;DHT22;2467;48.142;11.616;2023-07-31T03:34:10;18.10;99.90
4904;DHT22;2467;48.142;11.616;2023-07-31T03:35:04;18.10;99.90
4904;DHT22;2467;48.142;11.616;2023-07-31T03:35:57;18.10;99.90
4904;DHT22;2467;48.142;11.616;2023-07-31T03:36:49;18.10;99.90
4904;DHT22;2467;48.142;11.616;2023-07-31T03:37:43;18.10;99.90
4904;DHT22;2467;48.142;11.616;2023-07-31T03:38:35;18.00;99.90
4904;DHT22;2467;48.142;11.616;2023-07-31T03:39:28;18.00;99.90
4904;DHT22;2467;48.142;11.616;2023-07-31T03:40:20;18.00;99.90
4904;DHT22;2467;48.142;11.616;2023-07-31T03:41:13;18.00;99.90
4904;DHT22;2467;48.142;11.616;2023-07-31T03:42:06;18.00;99.90
4904;DHT22;2467;48.142;11.616;2023-07-31T03:42:59;18.10;99.90
4904;DHT22;2467;48.142;11.616;2023-07-31T03:43:52;18.10;99.90
4904;DHT22;2467;48.142;11.616;2023-07-31T03:44:45;18.10;99.90
4904;DHT22;2467;48.142;11.616;2023-07-31T03:45:37;18.10;99.90
4904;DHT22;2467;48.142;11.616;2023-07-31T03:46:32;18.10;99.90
4904;DHT22;2467;48.142;11.616;2023-07-31T03:47:25;18.00;99.90
4904;DHT22;2467;48.142;11.616;2023-07-31T03:48:19;18.00;99.90
4904;DHT22;2467;48.142;11.616;2023-07-31T03:49:11;18.00;99.90
4904;DHT22;2467;48.142;11.616;2023-07-31T03:50:05;18.00;99.90
4904;DHT22;2467;48.142;11.616;2023-07-31T03:50:58;18.00;99.90
4904;DHT22;2467;48.142;11.616;2023-07-31T03:51:51;18.00;99.90
4904;DHT22;2467;48.142;11.616;2023-07-31T03:52:43;18.00;99.90
4904;DHT22;2467;48.142;11.616;2023-07-31T03:53:35;18.00;99.90
4904;DHT22;2467;48.142;11.616;2023-07-31T03:54:28;18.00;99.90
4904;DHT22;2467;48.142;11.616;2023-07-31T03:55:21;18.00;99.90
4904;DHT22;2467;48.142;11.616;2023-07-31T03:56:13;18.00;99.90
4904;DHT22;2467;48.142;11.616;2023-07-31T03:57:07;18.00;99.90
4904;DHT22;2467;48.142;11.616;2023-07-31T03:57:59;18.00;99.90
4904;DHT22;2467;48.142;11.616;2023-07-31T03:58:52;18.00;99.90
4904;DHT22;2467;48.142;11.616;2023-07-31T03:59:45;18.00;99.90
4904;DHT22;2467;48.142;11.616;2023-07-31T04:00:37;18.00;99.90
4904;DHT22;2467;48.142;11.616;2023-07-31T04:01:30;18.00;99.90
4904;DHT22;2467;48.142;11.616;2023-07-31T04:02:24;18.00;99.90
4904;DHT22;2467;48.142;11.616;2023-07-31T04:03:16;18.10;99.90
4904;DHT22;2467;48.142;11.616;2023-07-31T04:04:10;18.00;99.90
4904;DHT22;2467;48.142;11.616;2023-07-31T04:05:02;18.00;99.90
4904;DHT22;2467;48.142;11.616;2023-07-31T04:05:55;18.00;99.90
4904;DHT22;2467;48.142;11.616;2023-07-31T04:06:48;18.00;99.90
4904;DHT22;2467;48.142;11.616;2023-07-31T04:07:40;18.00;99.90
4904;DHT22;2467;48.142;11.616;2023-07-31T04:08:32;18.00;99.90
4904;DHT22;2467;48.142;11.616;2023-07-31T04:09:26;18.00;99.90
4904;DHT22;2467;48.142;11.616;2023-07-31T04:10:18;18.00;99.90
4904;DHT22;2467;48.142;11.616;2023-07-31T04:11:10;18.00;99.90
4904;DHT22;2467;48.142;11.616;2023-07-31T04:12:04;18.00;99.90
4904;DHT22;2467;48.142;11.616;2023-07-31T04:12:56;18.00;99.90
4904;DHT22;2467;48.142;11.616;2023-07-31T04:13:48;18.00;99.90
4904;DHT22;2467;48.142;11.616;2023-07-31T04:14:41;18.00;99.90
4904;DHT22;2467;48.142;11.616;2023-07-31T04:15:34;18.00;99.90
4904;DHT22;2467;48.142;11.616;2023-07-31T04:16:26;18.00;99.90
4904;DHT22;2467;48.142;11.616;2023-07-31T04:17:19;18.00;99.90
4904;DHT22;2467;48.142;11.616;2023-07-31T04:18:13;18.00;99.90
4904;DHT22;2467;48.142;11.616;2023-07-31T04:19:05;18.00;99.90
4904;DHT22;2467;48.142;11.616;2023-07-31T04:19:58;18.00;99.90
4904;DHT22;2467;48.142;11.616;2023-07-31T04:20:50;18.10;99.90
4904;DHT22;2467;48.142;11.616;2023-07-31T04:21:43;18.00;99.90
4904;DHT22;2467;48.142;11.616;2023-07-31T04:22:35;18.00;99.90
4904;DHT22;2467;48.142;11.616;2023-07-31T04:23:29;18.00;99.90
4904;DHT22;2467;48.142;11.616;2023-07-31T04:24:21;17.90;99.90
4904;DHT22;2467;48.142;11.616;2023-07-31T04:25:16;17.90;99.90
4904;DHT22;2467;48.142;11.616;2023-07-31T04:26:09;17.90;99.90
4904;DHT22;2467;48.142;11.616;2023-07-31T04:27:02;17.90;99.90
4904;DHT22;2467;48.142;11.616;2023-07-31T04:27:55;17.90;99.90
4904;DHT22;2467;48.142;11.616;2023-07-31T04:28:48;17.90;99.90
4904;DHT22;2467;48.142;11.616;2023-07-31T04:29:41;17.90;99.90
4904;DHT22;2467;48.142;11.616;2023-07-31T04:30:34;17.90;99.90
4904;DHT22;2467;48.142;11.616;2023-07-31T04:31:26;17.90;99.90
4904;DHT22;2467;48.142;11.616;2023-07-31T04:32:20;17.90;99.90
4904;DHT22;2467;48.142;11.616;2023-07-31T04:33:14;17.90;99.90
4904;DHT22;2467;48.142;11.616;2023-07-31T04:34:06;17.90;99.90
4904;DHT22;2467;48.142;11.616;2023-07-31T04:34:59;17.90;99.90
4904;DHT22;2467;48.142;11.616;2023-07-31T04:35:52;17.90;99.90
4904;DHT22;2467;48.142;11.616;2023-07-31T04:36:45;17.90;99.90
4904;DHT22;2467;48.142;11.616;2023-07-31T04:37:38;17.90;99.90
4904;DHT22;2467;48.142;11.616;2023-07-31T04:38:30;17.90;99.90
4904;DHT22;2467;48.142;11.616;2023-07-31T04:39:23;17.90;99.90
4904;DHT22;2467;48.142;11.616;2023-07-31T04:40:16;17.90;99.90
4904;DHT22;2467;48.142;11.616;2023-07-31T04:41:08;17.90;99.90
4904;DHT22;2467;48.142;11.616;2023-07-31T04:42:01;17.90;99.90
4904;DHT22;2467;48.142;11.616;2023-07-31T04:42:53;17.90;99.90
4904;DHT22;2467;48.142;11.616;2023-07-31T04:43:46;17.90;99.90
4904;DHT22;2467;48.142;11.616;2023-07-31T04:44:39;17.80;99.90
4904;DHT22;2467;48.142;11.616;2023-07-31T04:45:31;17.80;99.90
4904;DHT22;2467;48.142;11.616;2023-07-31T04:46:23;17.80;99.90
4904;DHT22;2467;48.142;11.616;2023-07-31T04:47:17;17.80;99.90
4904;DHT22;2467;48.142;11.616;2023-07-31T04:48:09;17.90;99.90
4904;DHT22;2467;48.142;11.616;2023-07-31T04:49:03;17.90;99.90
4904;DHT22;2467;48.142;11.616;2023-07-31T04:49:56;17.90;99.90
4904;DHT22;2467;48.142;11.616;2023-07-31T04:50:49;17.90;99.90
4904;DHT22;2467;48.142;11.616;2023-07-31T04:51:41;17.90;99.90
4904;DHT22;2467;48.142;11.616;2023-07-31T04:52:33;17.90;99.90
4904;DHT22;2467;48.142;11.616;2023-07-31T04:53:27;17.90;99.90
4904;DHT22;2467;48.142;11.616;2023-07-31T04:54:19;17.80;99.90
4904;DHT22;2467;48.142;11.616;2023-07-31T04:55:15;17.80;99.90
4904;DHT22;2467;48.142;11.616;2023-07-31T04:56:07;17.80;99.90
4904;DHT22;2467;48.142;11.616;2023-07-31T04:56:59;17.80;99.90
4904;DHT22;2467;48.142;11.616;2023-07-31T04:57:52;17.80;99.90
4904;DHT22;2467;48.142;11.616;2023-07-31T04:58:45;17.80;99.90
4904;DHT22;2467;48.142;11.616;2023-07-31T04:59:37;17.80;99.90
4904;DHT22;2467;48.142;11.616;2023-07-31T05:00:30;17.80;99.90
4904;DHT22;2467;48.142;11.616;2023-07-31T05:01:22;17.80;99.90
4904;DHT22;2467;48.142;11.616;2023-07-31T05:02:15;17.80;99.90
4904;DHT22;2467;48.142;11.616;2023-07-31T05:03:08;17.80;99.90
4904;DHT22;2467;48.142;11.616;2023-07-31T05:04:04;17.90;99.90
4904;DHT22;2467;48.142;11.616;2023-07-31T05:04:56;17.80;99.90
4904;DHT22;2467;48.142;11.616;2023-07-31T05:05:50;17.80;99.90
4904;DHT22;2467;48.142;11.616;2023-07-31T05:06:42;17.90;99.90
4904;DHT22;2467;48.142;11.616;2023-07-31T05:07:35;17.90;99.90
4904;DHT22;2467;48.142;11.616;2023-07-31T05:08:28;17.90;99.90
4904;DHT22;2467;48.142;11.616;2023-07-31T05:09:21;18.00;99.90
4904;DHT22;2467;48.142;11.616;2023-07-31T05:10:14;18.00;99.90
4904;DHT22;2467;48.142;11.616;2023-07-31T05:11:06;18.00;99.90
4904;DHT22;2467;48.142;11.616;2023-07-31T05:11:59;18.00;99.90
4904;DHT22;2467;48.142;11.616;2023-07-31T05:12:52;18.00;99.90
4904;DHT22;2467;48.142;11.616;2023-07-31T05:13:45;18.00;99.90
4904;DHT22;2467;48.142;11.616;2023-07-31T05:14:37;18.00;99.90
4904;DHT22;2467;48.142;11.616;2023-07-31T05:15:29;18.00;99.90
4904;DHT22;2467;48.142;11.616;2023-07-31T05:16:22;17.90;99.90
4904;DHT22;2467;48.142;11.616;2023-07-31T05:17:15;18.00;99.90
4904;DHT22;2467;48.142;11.616;2023-07-31T05:18:07;18.00;99.90
4904;DHT22;2467;48.142;11.616;2023-07-31T05:19:00;18.00;99.90
4904;DHT22;2467;48.142;11.616;2023-07-31T05:19:54;18.00;99.90
4904;DHT22;2467;48.142;11.616;2023-07-31T05:20:47;18.00;99.90
4904;DHT22;2467;48.142;11.616;2023-07-31T05:21:39;18.00;99.90
4904;DHT22;2467;48.142;11.616;2023-07-31T05:22:31;18.00;99.90
4904;DHT22;2467;48.142;11.616;2023-07-31T05:23:25;18.00;99.90
4904;DHT22;2467;48.142;11.616;2023-07-31T05:24:17;18.00;99.90
4904;DHT22;2467;48.142;11.616;2023-07-31T05:25:10;17.90;99.90
4904;DHT22;2467;48.142;11.616;2023-07-31T05:26:03;17.90;99.90
4904;DHT22;2467;48.142;11.616;2023-07-31T05:26:57;17.90;99.90
4904;DHT22;2467;48.142;11.616;2023-07-31T05:27:49;17.90;99.90
4904;DHT22;2467;48.142;11.616;2023-07-31T05:28:42;17.90;99.90
4904;DHT22;2467;48.142;11.616;2023-07-31T05:29:34;17.90;99.90
4904;DHT22;2467;48.142;11.616;2023-07-31T05:30:26;17.90;99.90
4904;DHT22;2467;48.142;11.616;2023-07-31T05:31:20;17.90;99.90
4904;DHT22;2467;48.142;11.616;2023-07-31T05:32:14;17.90;99.90
4904;DHT22;2467;48.142;11.616;2023-07-31T05:33:07;17.90;99.90
4904;DHT22;2467;48.142;11.616;2023-07-31T05:34:01;18.00;99.90
4904;DHT22;2467;48.142;11.616;2023-07-31T05:34:55;18.00;99.90
4904;DHT22;2467;48.142;11.616;2023-07-31T05:35:48;18.00;99.90
4904;DHT22;2467;48.142;11.616;2023-07-31T05:36:40;18.10;99.90
4904;DHT22;2467;48.142;11.616;2023-07-31T05:37:34;18.10;99.90
4904;DHT22;2467;48.142;11.616;2023-07-31T05:38:26;18.10;99.90
4904;DHT22;2467;48.142;11.616;2023-07-31T05:39:19;18.10;99.90
4904;DHT22;2467;48.142;11.616;2023-07-31T05:40:11;18.10;99.90
4904;DHT22;2467;48.142;11.616;2023-07-31T05:41:04;18.20;99.90
4904;DHT22;2467;48.142;11.616;2023-07-31T05:41:57;18.20;99.90